Emeline, Iowa
Current Conditions -  °F | °C
As of 9:55 AM on Friday 21 Nov 2014 (Local Time) from KMXO Reporting Station
Clear Clear  
Wind Chill:   Ceiling: Unl
Heat Index: 19°   Visibility: 10mi
Dew Point:   Wind: 15mph
Humidity: 63%   Direction: 150°SSE
Pressure: 30.36"   Gusts: 21mph
Location:  42.0735°N, 90.817°W
Report Text: KMXO 211555Z AUTO 15013G18KT 10SM CLR M07/M13 A3036 RMK AO2
Loading
Personal Weather Stations






























Interactive Weather Map New forecast layout! Learn more

10-Day Weather Forecast

Advertisements
Track Severe Weather on mobile